Time;durP1;ratioP1;P1;durP2;ratioP2;P2;SDS_P1;SDS_P2;PMS_P1;PMS_P2;Temp;Humidity;BMP_temperature;BMP_pressure;BME280_temperature;BME280_humidity;BME280_pressure;Samples;Min_cycle;Max_cycle;Signal;HPM_P1;HPM_P2
2023/02/13 00:00:05;;;;;;;4.03;3.83;;;;;;;1.77;100.00;102395.41;5108894;28;20797;-54
2023/02/13 00:02:31;;;;;;;3.30;3.17;;;;;;;1.70;100.00;102389.03;5088451;28;20453;-53
2023/02/13 00:04:58;;;;;;;8.17;2.93;;;;;;;1.71;100.00;102389.91;5093851;28;20536;-53
2023/02/13 00:07:25;;;;;;;4.90;3.50;;;;;;;1.75;100.00;102387.47;5106210;28;20455;-52
2023/02/13 00:09:51;;;;;;;5.20;1.80;;;;;;;1.58;100.00;102374.50;5108863;28;20457;-54
2023/02/13 00:12:18;;;;;;;8.70;2.43;;;;;;;1.63;100.00;102373.84;5104967;28;20488;-52
2023/02/13 00:14:44;;;;;;;2.10;1.80;;;;;;;1.63;100.00;102371.25;5101818;28;20471;-53
2023/02/13 00:17:10;;;;;;;2.10;2.00;;;;;;;1.67;100.00;102378.41;5105417;28;20445;-53
2023/02/13 00:19:37;;;;;;;2.07;1.97;;;;;;;1.61;100.00;102378.16;5108739;28;20441;-52
2023/02/13 00:22:03;;;;;;;11.07;3.63;;;;;;;1.61;100.00;102378.16;5095748;28;20480;-53
2023/02/13 00:24:30;;;;;;;2.80;2.60;;;;;;;1.61;100.00;102370.28;5090374;28;20445;-53
2023/02/13 00:26:56;;;;;;;1.50;1.40;;;;;;;1.56;100.00;102374.47;5102072;28;20456;-53
2023/02/13 00:29:23;;;;;;;2.63;1.43;;;;;;;1.63;100.00;102378.22;5108197;28;20480;-53
2023/02/13 00:31:49;;;;;;;14.53;2.43;;;;;;;1.69;100.00;102370.63;5099799;28;20488;-52
2023/02/13 00:34:16;;;;;;;2.20;1.73;;;;;;;1.59;100.00;102371.94;5105315;28;20466;-52
2023/02/13 00:36:42;;;;;;;4.50;2.00;;;;;;;1.57;100.00;102372.72;5104950;28;20444;-52
2023/02/13 00:39:12;;;;;;;2.90;2.53;;;;;;;1.43;100.00;102373.03;5100336;28;20458;-53
2023/02/13 00:41:38;;;;;;;2.17;2.07;;;;;;;1.52;100.00;102374.28;5104344;28;20471;-53
2023/02/13 00:44:05;;;;;;;2.20;2.00;;;;;;;1.65;100.00;102369.59;5107839;28;20448;-52
2023/02/13 00:46:31;;;;;;;4.43;2.10;;;;;;;1.55;100.00;102372.66;5105728;28;20451;-53
2023/02/13 00:48:58;;;;;;;7.37;1.60;;;;;;;1.76;100.00;102363.03;5101290;28;20874;-53
2023/02/13 00:51:24;;;;;;;12.37;2.63;;;;;;;1.70;100.00;102367.16;5103748;28;20493;-54
2023/02/13 00:53:50;;;;;;;5.23;2.03;;;;;;;1.62;100.00;102372.06;5090125;28;20449;-54
2023/02/13 00:56:17;;;;;;;11.53;3.80;;;;;;;1.65;100.00;102372.22;5105412;28;20471;-54
2023/02/13 00:58:44;;;;;;;3.13;2.53;;;;;;;1.63;100.00;102370.34;5101035;28;20451;-53
2023/02/13 01:01:11;;;;;;;3.70;3.43;;;;;;;1.69;100.00;102375.84;5103786;28;20518;-54
2023/02/13 01:03:37;;;;;;;3.33;3.23;;;;;;;1.57;100.00;102370.09;5081623;28;20449;-54
2023/02/13 01:06:05;;;;;;;6.83;1.27;;;;;;;1.64;100.00;102375.66;5105602;28;20440;-54
2023/02/13 01:08:32;;;;;;;3.47;3.03;;;;;;;1.66;100.00;102368.78;5100578;28;20444;-54
2023/02/13 01:10:59;;;;;;;3.27;3.07;;;;;;;1.46;100.00;102367.94;5102717;28;20495;-53
2023/02/13 01:13:26;;;;;;;2.37;1.63;;;;;;;1.36;100.00;102368.38;5107729;28;20937;-53
2023/02/13 01:15:52;;;;;;;2.10;2.00;;;;;;;1.28;100.00;102367.16;5105769;28;20452;-53
2023/02/13 01:18:19;;;;;;;2.37;2.27;;;;;;;1.44;100.00;102373.94;5100682;28;20444;-52
2023/02/13 01:20:56;;;;;;;2.33;2.23;;;;;;;1.53;100.00;102376.06;5101443;28;20476;-53
2023/02/13 01:23:23;;;;;;;8.43;4.50;;;;;;;1.49;100.00;102372.41;5088311;28;20784;-53
2023/02/13 01:25:50;;;;;;;1.67;1.00;;;;;;;1.43;100.00;102370.44;5100355;28;20444;-53
2023/02/13 01:28:17;;;;;;;2.37;2.17;;;;;;;1.38;100.00;102373.69;5107111;28;21009;-54
2023/02/13 01:30:43;;;;;;;4.80;3.57;;;;;;;1.39;100.00;102384.22;5099835;28;20552;-54
2023/02/13 01:33:10;;;;;;;1.27;1.17;;;;;;;1.53;100.00;102379.56;5094238;28;20566;-53
2023/02/13 01:35:39;;;;;;;2.90;2.00;;;;;;;1.42;100.00;102383.47;5107226;28;20452;-54
2023/02/13 01:38:06;;;;;;;7.50;1.17;;;;;;;1.46;100.00;102380.13;5101962;28;20444;-53
2023/02/13 01:40:32;;;;;;;3.10;2.90;;;;;;;1.68;100.00;102382.84;5100072;28;20472;-53
2023/02/13 01:42:59;;;;;;;2.23;2.13;;;;;;;1.87;100.00;102378.31;5104965;28;20457;-53
2023/02/13 01:45:30;;;;;;;1.73;1.63;;;;;;;1.88;100.00;102374.88;5106743;28;20447;-53
2023/02/13 01:48:04;;;;;;;1.03;1.03;;;;;;;1.91;100.00;102373.25;5103006;28;20496;-53
2023/02/13 01:50:35;;;;;;;1.40;1.30;;;;;;;1.77;100.00;102377.94;5099801;28;21000;-53
2023/02/13 01:53:11;;;;;;;1.70;1.60;;;;;;;1.92;100.00;102374.16;5102731;28;20945;-53
2023/02/13 01:56:00;;;;;;;1.73;1.63;;;;;;;1.78;100.00;102373.59;5106784;28;20445;-54
2023/02/13 01:58:31;;;;;;;2.93;2.17;;;;;;;1.67;100.00;102370.56;5106795;28;20447;-54
2023/02/13 02:00:58;;;;;;;1.73;1.60;;;;;;;1.44;100.00;102372.22;5102523;28;20509;-53
2023/02/13 02:03:40;;;;;;;3.40;3.20;;;;;;;1.36;100.00;102378.84;5099620;28;20948;-53
2023/02/13 02:06:13;;;;;;;2.00;1.90;;;;;;;1.25;100.00;102371.38;5101353;28;20449;-53
2023/02/13 02:08:40;;;;;;;0.70;0.70;;;;;;;1.25;100.00;102367.03;5106709;28;21003;-53
2023/02/13 02:11:18;;;;;;;4.73;1.43;;;;;;;1.32;100.00;102365.56;5105691;28;20981;-53
2023/02/13 02:13:45;;;;;;;1.40;1.30;;;;;;;1.23;100.00;102367.78;5105359;28;20854;-53
2023/02/13 02:16:11;;;;;;;1.67;1.57;;;;;;;1.20;100.00;102371.16;5106498;28;20451;-53
2023/02/13 02:18:38;;;;;;;8.00;3.87;;;;;;;0.95;100.00;102370.91;5100890;28;20444;-53
2023/02/13 02:21:07;;;;;;;1.63;1.43;;;;;;;1.29;100.00;102368.06;5099645;28;20476;-53
2023/02/13 02:23:57;;;;;;;1.27;1.03;;;;;;;1.15;100.00;102367.47;5104078;28;20456;-54
2023/02/13 02:26:50;;;;;;;0.57;0.57;;;;;;;0.86;100.00;102364.47;5106530;28;20451;-54
2023/02/13 02:29:47;;;;;;;3.40;1.90;;;;;;;0.90;100.00;102365.50;5101730;28;20455;-53
2023/02/13 02:32:22;;;;;;;3.80;3.10;;;;;;;0.81;100.00;102365.06;5094141;28;20493;-53
2023/02/13 02:35:21;;;;;;;1.70;1.57;;;;;;;0.80;100.00;102364.19;5088542;28;20447;-53
2023/02/13 02:38:06;;;;;;;1.23;0.63;;;;;;;0.76;100.00;102363.97;5099106;28;20806;-53
2023/02/13 02:40:46;;;;;;;0.50;0.50;;;;;;;0.67;100.00;102369.69;5098877;28;20467;-53
2023/02/13 02:43:31;;;;;;;0.93;0.93;;;;;;;0.71;100.00;102360.28;5102517;28;20452;-54
2023/02/13 02:46:10;;;;;;;1.47;1.37;;;;;;;0.52;100.00;102364.66;5106071;28;20945;-53
2023/02/13 02:52:03;;;;;;;2.00;1.43;;;;;;;0.59;100.00;102360.63;5001609;28;20497;-52
2023/02/13 03:06:10;;;;;;;0.40;0.40;;;;;;;0.56;100.00;102358.75;5097027;28;20452;-52
2023/02/13 03:14:19;;;;;;;1.07;1.07;;;;;;;0.32;100.00;102359.34;5105340;28;20447;-53
2023/02/13 03:22:45;;;;;;;4.57;3.20;;;;;;;0.32;100.00;102369.81;5109531;28;20535;-53
2023/02/13 03:25:33;;;;;;;1.80;1.70;;;;;;;0.40;100.00;102365.81;5105722;28;20500;-53
2023/02/13 03:30:59;;;;;;;1.20;1.20;;;;;;;0.69;100.00;102365.44;5109444;28;20464;-52
2023/02/13 03:33:42;;;;;;;5.30;1.53;;;;;;;0.72;100.00;102364.69;5106446;28;20444;-53
2023/02/13 03:39:38;;;;;;;1.40;1.30;;;;;;;0.62;100.00;102363.38;5102547;28;20479;-53
2023/02/13 03:42:14;;;;;;;0.93;0.90;;;;;;;0.54;100.00;102368.25;5093515;28;20469;-52
2023/02/13 03:47:56;;;;;;;1.67;1.57;;;;;;;0.42;100.00;102365.09;5093461;28;20471;-53
2023/02/13 03:50:25;;;;;;;0.63;0.60;;;;;;;0.49;100.00;102375.00;5102238;28;20537;-53
2023/02/13 03:53:04;;;;;;;0.67;0.67;;;;;;;0.44;100.00;102366.06;5106054;28;20492;-54
2023/02/13 04:01:17;;;;;;;1.33;1.13;;;;;;;0.38;100.00;102376.22;5107812;28;20486;-53
2023/02/13 04:03:57;;;;;;;1.73;1.63;;;;;;;0.43;100.00;102373.84;5101997;28;20448;-53
2023/02/13 04:06:29;;;;;;;0.90;0.80;;;;;;;0.57;100.00;102380.59;5102090;28;20444;-53
2023/02/13 04:08:55;;;;;;;1.80;1.70;;;;;;;0.56;100.00;102376.19;5107157;28;20449;-53
2023/02/13 04:11:48;;;;;;;2.40;1.27;;;;;;;0.51;100.00;102385.53;5108814;28;20463;-53
2023/02/13 04:14:24;;;;;;;0.87;0.87;;;;;;;0.64;100.00;102384.38;5069331;28;20543;-53
2023/02/13 04:17:02;;;;;;;1.23;1.10;;;;;;;0.70;100.00;102387.28;5109689;28;20505;-53
2023/02/13 04:19:30;;;;;;;1.63;1.63;;;;;;;0.64;100.00;102385.25;5110900;28;20642;-53
2023/02/13 04:21:59;;;;;;;0.63;0.63;;;;;;;0.66;100.00;102383.59;5106570;28;20508;-53
2023/02/13 04:24:26;;;;;;;1.70;1.00;;;;;;;0.58;100.00;102385.00;5102416;28;21548;-53
2023/02/13 04:26:54;;;;;;;12.13;0.90;;;;;;;0.63;100.00;102383.47;5102622;28;20468;-53
2023/02/13 04:29:22;;;;;;;0.80;0.60;;;;;;;0.56;100.00;102384.03;5094661;28;20444;-53
2023/02/13 04:31:49;;;;;;;0.80;0.80;;;;;;;0.52;100.00;102390.81;5105090;28;20492;-53
2023/02/13 04:34:15;;;;;;;1.73;1.63;;;;;;;0.39;100.00;102383.22;5108665;28;20717;-53
2023/02/13 04:36:42;;;;;;;4.10;2.30;;;;;;;0.42;100.00;102378.16;5104922;28;20448;-53
2023/02/13 04:39:10;;;;;;;2.57;1.73;;;;;;;0.41;100.00;102378.06;5101465;28;20470;-53
2023/02/13 04:41:36;;;;;;;1.87;1.57;;;;;;;0.41;100.00;102384.22;5104332;28;20471;-53
2023/02/13 04:44:03;;;;;;;2.23;2.03;;;;;;;0.26;100.00;102381.75;5108453;28;20449;-53
2023/02/13 04:46:29;;;;;;;1.90;1.80;;;;;;;0.34;100.00;102383.84;5105496;28;21006;-53
2023/02/13 04:48:56;;;;;;;1.57;1.47;;;;;;;0.03;100.00;102379.81;5101366;28;20481;-53
2023/02/13 04:51:22;;;;;;;1.47;1.40;;;;;;;0.15;100.00;102374.25;5103566;28;20834;-53
2023/02/13 04:53:49;;;;;;;4.97;1.63;;;;;;;0.30;100.00;102377.59;5107837;28;20503;-53
2023/02/13 04:56:15;;;;;;;3.23;3.03;;;;;;;0.45;100.00;102378.31;5105584;28;20444;-53
2023/02/13 04:58:44;;;;;;;0.70;0.70;;;;;;;0.52;100.00;102379.47;5101227;28;20451;-53
2023/02/13 05:01:15;;;;;;;2.40;1.73;;;;;;;0.43;100.00;102376.44;5102435;28;20494;-53
2023/02/13 05:03:42;;;;;;;1.03;0.80;;;;;;;0.26;100.00;102381.75;5083516;28;20448;-53
2023/02/13 05:06:08;;;;;;;1.30;1.10;;;;;;;0.50;100.00;102379.41;5107121;28;20468;-53
2023/02/13 05:08:35;;;;;;;2.20;2.07;;;;;;;0.34;100.00;102384.75;5100669;28;20444;-52
2023/02/13 05:11:01;;;;;;;1.20;1.20;;;;;;;0.36;100.00;102377.88;5101318;28;20473;-53
2023/02/13 05:13:27;;;;;;;1.80;1.70;;;;;;;0.44;100.00;102379.13;5107519;28;20484;-53
2023/02/13 05:15:54;;;;;;;0.70;0.53;;;;;;;0.38;100.00;102380.53;5107687;28;20541;-53
2023/02/13 05:18:20;;;;;;;1.70;1.60;;;;;;;0.44;100.00;102371.28;5100198;28;20451;-52
2023/02/13 05:23:32;;;;;;;2.03;0.53;;;;;;;0.34;100.00;102374.28;5091453;28;20444;-53
2023/02/13 05:25:59;;;;;;;0.63;0.63;;;;;;;0.42;100.00;102372.03;5100019;28;20456;-53
2023/02/13 05:31:11;;;;;;;1.53;1.43;;;;;;;0.32;100.00;102377.66;5100369;28;20468;-53
2023/02/13 05:33:38;;;;;;;0.40;0.20;;;;;;;0.41;100.00;102376.38;5090509;28;20820;-52
2023/02/13 05:36:04;;;;;;;0.40;0.40;;;;;;;0.52;100.00;102372.50;5107322;28;20444;-53
2023/02/13 05:38:31;;;;;;;0.30;0.30;;;;;;;0.53;100.00;102381.25;5105954;28;20949;-53
2023/02/13 05:40:59;;;;;;;0.50;0.50;;;;;;;0.59;100.00;102379.81;5099864;28;20468;-53
2023/02/13 05:43:26;;;;;;;2.67;0.60;;;;;;;0.61;100.00;102379.00;5101291;28;20445;-52
2023/02/13 05:46:05;;;;;;;0.77;0.77;;;;;;;0.70;100.00;102380.31;5107069;28;20534;-53
2023/02/13 05:48:32;;;;;;;0.60;0.60;;;;;;;0.94;100.00;102375.25;5107377;28;20479;-51
2023/02/13 05:50:58;;;;;;;1.33;1.23;;;;;;;0.92;100.00;102376.91;5100692;28;20551;-53
2023/02/13 05:53:25;;;;;;;1.27;0.93;;;;;;;0.93;100.00;102383.03;5099559;28;21005;-53
2023/02/13 05:55:52;;;;;;;2.10;1.70;;;;;;;0.91;100.00;102379.47;5106295;28;20934;-53
2023/02/13 05:58:19;;;;;;;1.77;1.67;;;;;;;0.88;100.00;102381.13;5106727;28;20461;-53
2023/02/13 06:00:46;;;;;;;1.33;1.23;;;;;;;0.49;100.00;102381.94;5100259;28;20977;-53
2023/02/13 06:03:13;;;;;;;4.60;0.80;;;;;;;0.27;100.00;102386.19;5099679;28;20441;-53
2023/02/13 06:05:39;;;;;;;1.20;1.13;;;;;;;0.34;100.00;102384.75;5105698;28;20449;-52
2023/02/13 06:08:06;;;;;;;1.23;1.07;;;;;;;0.66;100.00;102380.97;5106549;28;20448;-54
2023/02/13 06:10:32;;;;;;;1.03;0.87;;;;;;;0.67;100.00;102382.78;5100451;28;20490;-53
2023/02/13 06:12:59;;;;;;;3.30;2.07;;;;;;;0.59;100.00;102378.94;5099522;28;20488;-53
2023/02/13 06:15:25;;;;;;;4.03;1.63;;;;;;;0.58;100.00;102387.63;5105389;28;20507;-52
2023/02/13 06:17:51;;;;;;;0.50;0.50;;;;;;;0.41;100.00;102376.38;5106844;28;20443;-53
2023/02/13 06:20:18;;;;;;;2.10;2.00;;;;;;;0.50;100.00;102374.16;5093117;28;20493;-53
2023/02/13 06:22:50;;;;;;;1.03;0.90;;;;;;;0.45;100.00;102370.44;5085804;28;20538;-53
2023/02/13 06:25:17;;;;;;;0.90;0.90;;;;;;;0.53;100.00;102376.91;5102788;28;20922;-53
2023/02/13 06:27:43;;;;;;;2.33;2.17;;;;;;;0.19;100.00;102377.09;5089351;28;20488;-53
2023/02/13 06:30:11;;;;;;;1.47;1.37;;;;;;;0.25;100.00;102377.34;5102434;28;20913;-53
2023/02/13 06:32:38;;;;;;;1.60;1.47;;;;;;;0.50;100.00;102378.50;5099089;28;20548;-55
2023/02/13 06:35:05;;;;;;;0.60;0.60;;;;;;;0.54;100.00;102369.97;5102980;28;20445;-53
2023/02/13 06:37:32;;;;;;;1.70;1.70;;;;;;;0.55;100.00;102380.53;5105140;28;20960;-54
2023/02/13 06:39:58;;;;;;;2.10;0.93;;;;;;;0.50;100.00;102379.41;5103229;28;21001;-54
2023/02/13 06:42:25;;;;;;;3.87;1.80;;;;;;;0.59;100.00;102378.94;5098731;28;20532;-54
2023/02/13 06:44:51;;;;;;;1.73;1.63;;;;;;;0.61;100.00;102384.22;5102416;28;20517;-54
2023/02/13 06:47:18;;;;;;;0.30;0.30;;;;;;;0.54;100.00;102385.66;5106095;28;20449;-53
2023/02/13 06:49:44;;;;;;;0.77;0.77;;;;;;;0.57;100.00;102396.28;5103267;28;20949;-54
2023/02/13 06:52:11;;;;;;;0.30;0.30;;;;;;;0.54;100.00;102393.50;5104134;28;20504;-54
2023/02/13 06:54:37;;;;;;;1.47;1.47;;;;;;;0.63;100.00;102385.19;5103318;28;20444;-54
2023/02/13 06:57:13;;;;;;;0.77;0.77;;;;;;;0.47;100.00;102392.34;5098922;28;20443;-53
2023/02/13 06:59:40;;;;;;;0.50;0.33;;;;;;;0.49;100.00;102393.31;5100433;28;20445;-54
2023/02/13 07:02:09;;;;;;;1.03;1.03;;;;;;;0.46;100.00;102392.28;5105900;28;20545;-54
2023/02/13 07:04:36;;;;;;;2.33;2.23;;;;;;;0.97;100.00;102391.13;5105341;28;20948;-54
2023/02/13 07:07:02;;;;;;;2.50;2.37;;;;;;;0.54;100.00;102394.41;5098835;28;20522;-54
2023/02/13 07:09:31;;;;;;;0.87;0.87;;;;;;;0.42;100.00;102388.63;5099309;28;20448;-53
2023/02/13 07:11:57;;;;;;;1.30;1.20;;;;;;;0.59;100.00;102397.25;5106243;28;20469;-54
2023/02/13 07:14:23;;;;;;;0.30;0.30;;;;;;;0.54;100.00;102396.13;5105430;28;20451;-54
2023/02/13 07:16:50;;;;;;;1.37;1.27;;;;;;;0.49;100.00;102397.63;5098563;28;20452;-53
2023/02/13 07:19:16;;;;;;;1.67;1.00;;;;;;;0.66;100.00;102401.91;5098866;28;20525;-54
2023/02/13 07:21:43;;;;;;;6.20;3.60;;;;;;;0.73;100.00;102406.63;5094587;28;20525;-54
2023/02/13 07:24:09;;;;;;;0.50;0.50;;;;;;;0.80;100.00;102408.66;5105222;28;20451;-54
2023/02/13 07:26:35;;;;;;;8.63;1.27;;;;;;;0.70;100.00;102408.22;5099409;28;20471;-54
2023/02/13 07:29:04;;;;;;;4.80;2.13;;;;;;;0.83;100.00;102410.56;5105771;28;20455;-53
2023/02/13 07:31:38;;;;;;;2.23;1.80;;;;;;;0.71;100.00;102400.44;5100771;28;20464;-54
2023/02/13 07:34:05;;;;;;;0.73;0.73;;;;;;;0.83;100.00;102406.22;5098461;28;20985;-53
2023/02/13 07:36:32;;;;;;;0.70;0.70;;;;;;;0.66;100.00;102407.16;5103169;28;20452;-54
2023/02/13 07:38:58;;;;;;;1.73;1.63;;;;;;;0.86;100.00;102406.34;5105634;28;20858;-53
2023/02/13 07:41:25;;;;;;;1.97;1.80;;;;;;;0.95;100.00;102411.09;5101322;28;20499;-54
2023/02/13 07:43:52;;;;;;;1.40;1.30;;;;;;;1.08;100.00;102408.19;5080737;28;20480;-53
2023/02/13 07:46:19;;;;;;;1.90;1.23;;;;;;;0.93;100.00;102404.88;5102998;28;20456;-53
2023/02/13 07:48:46;;;;;;;1.63;1.37;;;;;;;0.86;100.00;102408.06;5107225;28;20452;-53
2023/02/13 07:51:12;;;;;;;0.40;0.40;;;;;;;0.91;100.00;102401.31;5099088;28;21029;-54
2023/02/13 07:53:38;;;;;;;2.37;2.27;;;;;;;0.84;100.00;102405.38;5109186;28;20530;-53
2023/02/13 07:56:06;;;;;;;1.97;1.70;;;;;;;0.96;100.00;102405.06;5105152;28;20493;-53
2023/02/13 07:58:33;;;;;;;2.50;1.43;;;;;;;1.13;100.00;102408.41;5102033;28;20538;-54
2023/02/13 08:01:07;;;;;;;4.33;1.90;;;;;;;1.31;100.00;102403.97;5105968;28;20465;-55
2023/02/13 08:03:34;;;;;;;2.17;1.40;;;;;;;1.03;100.00;102408.81;5109078;28;20464;-54
2023/02/13 08:06:01;;;;;;;6.73;1.27;;;;;;;1.30;100.00;102403.91;5106721;28;20440;-54
2023/02/13 08:08:27;;;;;;;1.70;1.70;;;;;;;0.93;100.00;102402.28;5101665;28;20454;-52
2023/02/13 08:13:40;;;;;;;0.90;0.90;;;;;;;1.00;100.00;102408.69;5088507;28;20493;-51
2023/02/13 08:16:07;;;;;;;1.50;1.40;;;;;;;1.04;100.00;102406.25;5101763;28;20472;-51
2023/02/13 08:18:33;;;;;;;3.17;1.27;;;;;;;1.17;100.00;102411.22;5088641;28;20476;-52
2023/02/13 08:21:03;;;;;;;2.63;1.17;;;;;;;1.31;100.00;102409.19;5103311;28;20479;-54
2023/02/13 08:23:29;;;;;;;2.30;0.73;;;;;;;1.13;100.00;102411.03;5103784;28;20440;-54
2023/02/13 08:26:02;;;;;;;2.10;0.60;;;;;;;1.23;100.00;102415.81;5101654;28;20806;-54
2023/02/13 08:28:28;;;;;;;1.80;1.50;;;;;;;1.21;100.00;102414.84;5108329;28;20462;-52
2023/02/13 08:30:55;;;;;;;0.60;0.60;;;;;;;1.24;100.00;102414.13;5101356;28;20809;-53
2023/02/13 08:33:22;;;;;;;1.17;1.17;;;;;;;1.35;100.00;102411.09;5105497;28;20488;-54
2023/02/13 08:35:48;;;;;;;2.00;1.03;;;;;;;1.52;100.00;102414.47;5108530;28;20956;-53
2023/02/13 08:38:14;;;;;;;4.33;3.07;;;;;;;1.45;100.00;102415.03;5104411;28;20448;-54
2023/02/13 08:40:41;;;;;;;2.60;1.53;;;;;;;1.18;100.00;102412.09;5101175;28;20465;-53
2023/02/13 08:43:07;;;;;;;2.67;2.57;;;;;;;1.34;100.00;102413.66;5105650;28;20437;-52
2023/02/13 08:45:34;;;;;;;5.60;1.70;;;;;;;1.51;100.00;102417.00;5108259;28;20453;-52
2023/02/13 08:48:02;;;;;;;0.73;0.70;;;;;;;1.31;100.00;102417.06;5104564;28;20460;-53
2023/02/13 08:50:29;;;;;;;5.90;2.10;;;;;;;1.46;100.00;102407.22;5101274;28;20472;-53
2023/02/13 08:52:57;;;;;;;1.03;1.03;;;;;;;1.45;100.00;102409.78;5104623;28;20484;-52
2023/02/13 08:55:23;;;;;;;3.40;1.60;;;;;;;1.70;100.00;102411.72;5101014;28;20952;-53
2023/02/13 08:57:50;;;;;;;12.30;1.63;;;;;;;1.67;100.00;102406.34;5104090;28;20887;-53
2023/02/13 09:00:16;;;;;;;3.07;2.07;;;;;;;1.85;100.00;102407.09;5106806;28;20993;-53
2023/02/13 09:02:42;;;;;;;1.60;1.53;;;;;;;2.07;100.00;102404.53;5105286;28;20448;-52
2023/02/13 09:05:09;;;;;;;3.50;2.97;;;;;;;1.93;100.00;102410.94;5100879;28;20451;-52
2023/02/13 09:07:35;;;;;;;2.20;2.10;;;;;;;1.96;100.00;102411.06;5103865;28;20456;-53
2023/02/13 09:10:02;;;;;;;3.70;1.80;;;;;;;2.08;100.00;102408.94;5089639;28;20494;-53
2023/02/13 09:12:28;;;;;;;1.60;0.93;;;;;;;2.41;100.00;102416.34;5105072;28;20470;-53
2023/02/13 09:14:55;;;;;;;1.93;1.20;;;;;;;2.34;100.00;102417.84;5100682;28;20448;-52
2023/02/13 09:17:21;;;;;;;1.27;0.93;;;;;;;2.24;100.00;102420.03;5103530;28;20455;-53
2023/02/13 09:19:48;;;;;;;3.33;1.73;;;;;;;2.30;100.00;102415.91;5107300;28;20437;-53
2023/02/13 09:22:16;;;;;;;5.70;2.43;;;;;;;2.49;100.00;102417.56;5096607;28;20481;-53
2023/02/13 09:24:42;;;;;;;5.90;2.87;;;;;;;2.52;100.00;102415.03;5107528;28;20544;-54
2023/02/13 09:27:09;;;;;;;3.03;2.27;;;;;;;2.76;100.00;102408.94;5100819;28;20460;-54
2023/02/13 09:29:35;;;;;;;2.43;2.10;;;;;;;2.65;100.00;102412.03;5107513;28;20453;-53
2023/02/13 09:32:03;;;;;;;8.17;2.50;;;;;;;2.71;100.00;102413.09;5106093;28;20547;-52
2023/02/13 09:34:30;;;;;;;2.90;2.70;;;;;;;2.89;100.00;102417.31;5100488;28;21004;-48
2023/02/13 09:36:56;;;;;;;9.70;3.17;;;;;;;2.84;100.00;102424.13;5101499;28;20453;-48
2023/02/13 09:39:23;;;;;;;6.73;4.00;;;;;;;2.93;100.00;102419.22;5106801;28;20449;-50
2023/02/13 09:41:52;;;;;;;1.30;1.20;;;;;;;3.44;100.00;102415.78;5106315;28;20547;-48
2023/02/13 09:44:33;;;;;;;4.60;3.07;;;;;;;3.05;100.00;102412.63;5099808;28;20447;-48
2023/02/13 09:47:03;;;;;;;3.70;2.63;;;;;;;3.39;100.00;102414.72;5100217;28;20491;-48
2023/02/13 09:49:32;;;;;;;5.20;4.70;;;;;;;3.60;100.00;102417.19;5105537;28;20448;-48
2023/02/13 09:51:59;;;;;;;4.47;3.83;;;;;;;3.89;100.00;102426.97;5098182;28;20484;-48
2023/02/13 09:54:27;;;;;;;2.37;2.27;;;;;;;3.94;100.00;102421.84;5105039;28;20524;-49
2023/02/13 09:57:01;;;;;;;2.77;2.57;;;;;;;3.59;100.00;102425.94;5106921;28;20452;-49
2023/02/13 09:59:49;;;;;;;5.83;2.63;;;;;;;3.54;100.00;102431.00;5103491;28;20448;-48
2023/02/13 10:02:52;;;;;;;3.40;2.70;;;;;;;3.52;100.00;102435.31;5099649;28;20877;-48
2023/02/13 10:05:33;;;;;;;2.60;2.50;;;;;;;3.65;100.00;102431.38;5099726;28;20835;-48
2023/02/13 10:08:17;;;;;;;3.60;3.47;;;;;;;3.75;100.00;102428.25;5113189;28;20444;-49
2023/02/13 10:11:11;;;;;;;4.10;2.43;;;;;;;3.98;100.00;102424.63;5102331;28;20482;-48
2023/02/13 10:14:04;;;;;;;1.57;1.47;;;;;;;3.91;100.00;102425.25;5106318;28;20580;-48
2023/02/13 10:16:44;;;;;;;2.97;1.47;;;;;;;3.85;100.00;102428.59;5106852;28;20449;-48
2023/02/13 10:19:29;;;;;;;3.27;2.33;;;;;;;3.82;100.00;102428.47;5105325;28;20448;-48
2023/02/13 10:22:23;;;;;;;2.60;2.40;;;;;;;4.06;100.00;102420.50;5087086;28;20482;-48
2023/02/13 10:25:09;;;;;;;9.93;3.60;;;;;;;4.30;100.00;102417.75;5106513;28;20437;-49
2023/02/13 10:27:43;;;;;;;3.57;3.23;;;;;;;4.28;100.00;102419.47;5082962;28;20511;-48
2023/02/13 10:30:11;;;;;;;1.73;1.63;;;;;;;4.38;100.00;102420.63;5103200;28;20926;-49
2023/02/13 10:33:22;;;;;;;3.90;2.87;;;;;;;4.14;100.00;102418.13;5106355;28;20473;-48
2023/02/13 10:36:01;;;;;;;3.63;3.00;;;;;;;4.40;100.00;102417.22;5106090;28;20514;-48
2023/02/13 10:38:33;;;;;;;3.83;2.60;;;;;;;4.48;100.00;102412.16;5086412;28;20440;-49
2023/02/13 10:41:22;;;;;;;7.97;4.20;;;;;;;4.60;100.00;102417.81;5099072;28;20515;-49
2023/02/13 10:43:51;;;;;;;5.90;5.40;;;;;;;4.55;100.00;102405.38;5099305;28;20897;-48
2023/02/13 10:46:39;;;;;;;2.20;2.10;;;;;;;4.85;100.00;102392.19;5103384;28;20449;-48
2023/02/13 10:49:30;;;;;;;14.10;4.67;;;;;;;5.02;100.00;102394.44;5106252;28;20813;-48
2023/02/13 10:52:16;;;;;;;3.77;1.77;;;;;;;5.05;100.00;102386.63;5099022;28;20978;-48
2023/02/13 10:55:01;;;;;;;2.20;2.10;;;;;;;5.25;100.00;102395.09;5100441;28;20494;-48
2023/02/13 10:57:38;;;;;;;8.60;2.57;;;;;;;5.49;100.00;102397.50;5088729;28;20601;-48
2023/02/13 11:00:40;;;;;;;3.57;3.00;;;;;;;5.70;100.00;102383.94;5098868;28;20447;-49
2023/02/13 11:03:26;;;;;;;3.87;3.67;;;;;;;5.80;100.00;102385.06;5083029;28;20540;-48
2023/02/13 11:05:54;;;;;;;4.77;4.47;;;;;;;5.83;100.00;102380.75;5101897;28;20452;-48
2023/02/13 11:08:44;;;;;;;8.37;4.50;;;;;;;5.65;100.00;102372.41;5105619;28;20860;-48
2023/02/13 11:11:31;;;;;;;4.20;2.80;;;;;;;5.87;100.00;102368.53;5105336;28;20470;-48
2023/02/13 11:14:16;;;;;;;4.60;3.97;;;;;;;6.02;100.00;102373.31;5103278;28;20484;-49
2023/02/13 11:17:00;;;;;;;4.47;4.00;;;;;;;6.15;100.00;102364.81;5105569;28;20515;-48
2023/02/13 11:19:38;;;;;;;5.67;4.87;;;;;;;6.42;100.00;102361.91;5105293;28;20452;-48
2023/02/13 11:22:11;;;;;;;5.37;3.60;;;;;;;6.42;100.00;102359.25;5094838;28;20585;-50
2023/02/13 11:24:50;;;;;;;5.63;3.80;;;;;;;6.51;100.00;102370.03;5109284;28;20441;-48
2023/02/13 11:27:23;;;;;;;7.87;4.60;;;;;;;6.30;100.00;102365.16;5103239;28;20460;-48
2023/02/13 11:29:56;;;;;;;7.40;4.87;;;;;;;6.52;100.00;102369.19;5090457;28;20450;-48
2023/02/13 11:32:25;;;;;;;4.93;4.20;;;;;;;6.66;100.00;102358.91;5102924;28;20809;-48
2023/02/13 11:34:54;;;;;;;4.77;4.37;;;;;;;6.65;100.00;102367.69;5107768;28;21021;-48
2023/02/13 11:37:24;;;;;;;7.83;6.00;;;;;;;7.00;100.00;102363.13;5109419;28;20448;-49
2023/02/13 11:39:53;;;;;;;11.57;4.27;;;;;;;7.06;100.00;102365.88;5095733;28;20502;-48
2023/02/13 11:42:35;;;;;;;17.73;6.33;;;;;;;7.19;100.00;102354.69;5109332;28;20996;-49
2023/02/13 11:45:05;;;;;;;18.43;4.47;;;;;;;7.39;100.00;102357.66;5108333;28;20448;-48
2023/02/13 11:47:38;;;;;;;7.10;4.97;;;;;;;7.77;100.00;102358.31;5102520;28;20440;-48
2023/02/13 11:50:26;;;;;;;7.07;4.00;;;;;;;7.62;100.00;102355.44;5102351;28;20535;-52
2023/02/13 11:52:56;;;;;;;14.07;5.83;;;;;;;7.72;100.00;102352.06;5106211;28;20452;-49
2023/02/13 11:55:37;;;;;;;6.30;5.07;;;;;;;7.62;100.00;102347.50;5102078;28;20917;-49
2023/02/13 11:58:22;;;;;;;8.23;5.67;;;;;;;7.79;100.00;102342.47;5103030;28;20506;-49
2023/02/13 12:00:48;;;;;;;10.37;6.23;;;;;;;8.12;100.00;102340.34;5104038;28;20972;-48
2023/02/13 12:03:21;;;;;;;14.70;7.97;;;;;;;8.50;100.00;102343.56;5099940;28;20444;-48
2023/02/13 12:06:00;;;;;;;11.23;4.47;;;;;;;8.37;100.00;102341.63;5104933;28;20500;-50
2023/02/13 12:08:28;;;;;;;13.53;3.57;;;;;;;8.47;100.00;102332.91;5102116;28;20481;-50
2023/02/13 12:10:58;;;;;;;13.27;4.03;;;;;;;8.23;100.00;102332.56;5103800;28;21015;-50
2023/02/13 12:13:38;;;;;;;11.23;5.87;;;;;;;8.52;100.00;102325.91;5108872;28;20445;-48
2023/02/13 12:16:13;;;;;;;6.07;5.53;;;;;;;8.68;100.00;102324.34;5108955;28;20459;-50
2023/02/13 12:18:45;;;;;;;7.47;6.77;;;;;;;8.78;100.00;102315.63;5103938;28;20443;-50
2023/02/13 12:21:40;;;;;;;11.57;7.90;;;;;;;8.99;100.00;102304.34;5099011;28;20495;-50
2023/02/13 12:24:52;;;;;;;15.20;6.40;;;;;;;8.89;100.00;102308.66;5097122;28;20453;-53
2023/02/13 12:27:41;;;;;;;6.17;5.40;;;;;;;9.07;100.00;102304.44;5070181;28;20476;-53
2023/02/13 12:30:11;;;;;;;12.70;9.60;;;;;;;9.28;100.00;102306.41;5093810;28;20448;-50
2023/02/13 12:32:50;;;;;;;10.47;6.60;;;;;;;9.09;100.00;102292.97;5101777;28;20540;-51